createdAt,value
2024-03-30T00:00:33.174Z,40.20
2024-03-30T00:01:33.171Z,40.35
2024-03-30T00:02:33.179Z,40.75
2024-03-30T00:03:33.105Z,42.35
2024-03-30T00:04:33.093Z,41.39
2024-03-30T00:05:33.114Z,40.87
2024-03-30T00:06:33.092Z,41.75
2024-03-30T00:07:33.098Z,41.45
2024-03-30T00:08:33.062Z,40.77
2024-03-30T00:09:33.127Z,40.42
2024-03-30T00:10:33.258Z,40.13
2024-03-30T00:11:33.024Z,40.96
2024-03-30T00:12:33.064Z,41.64
2024-03-30T00:13:33.007Z,41.71
2024-03-30T00:14:32.965Z,41.43
2024-03-30T00:15:33.027Z,41.87
2024-03-30T00:16:33.006Z,40.82
2024-03-30T00:17:32.962Z,40.28
2024-03-30T00:18:32.932Z,40.49
2024-03-30T00:19:32.900Z,41.23
2024-03-30T00:20:32.922Z,41.67
2024-03-30T00:21:32.850Z,42.17
2024-03-30T00:22:32.844Z,41.16
2024-03-30T00:23:32.826Z,39.95
2024-03-30T00:24:32.824Z,39.90
2024-03-30T00:25:32.792Z,40.24
2024-03-30T00:26:32.767Z,40.91
2024-03-30T00:27:32.822Z,40.58
2024-03-30T00:28:32.762Z,40.52
2024-03-30T00:29:32.740Z,39.96
2024-03-30T00:30:32.725Z,40.96
2024-03-30T00:31:32.706Z,41.28
2024-03-30T00:32:32.707Z,39.77
2024-03-30T00:33:32.689Z,39.46
2024-03-30T00:34:32.671Z,38.95
2024-03-30T00:35:32.650Z,39.14
2024-03-30T00:36:32.634Z,40.14
2024-03-30T00:37:32.654Z,39.41
2024-03-30T00:38:32.703Z,39.35
2024-03-30T00:39:32.612Z,39.13
2024-03-30T00:40:32.644Z,39.04
2024-03-30T00:41:32.595Z,38.42
2024-03-30T00:42:32.619Z,39.08
2024-03-30T00:43:32.577Z,39.46
2024-03-30T00:44:32.654Z,38.79
2024-03-30T00:45:32.510Z,39.80
2024-03-30T00:46:32.531Z,38.64
2024-03-30T00:47:40.289Z,38.72
2024-03-30T00:48:32.478Z,37.89
2024-03-30T00:49:32.464Z,38.16
2024-03-30T00:50:32.480Z,37.82
2024-03-30T00:51:32.478Z,37.86
2024-03-30T00:52:32.460Z,37.75
2024-03-30T00:53:32.421Z,37.49
2024-03-30T00:54:32.419Z,37.70
2024-03-30T00:55:32.414Z,38.37
2024-03-30T00:56:32.430Z,38.00
2024-03-30T00:57:32.358Z,38.02
2024-03-30T00:58:32.338Z,37.49
2024-03-30T00:59:32.332Z,37.37
2024-03-30T01:00:32.400Z,37.77
2024-03-30T01:01:32.335Z,37.92
2024-03-30T01:02:32.316Z,38.26
2024-03-30T01:03:32.264Z,37.68
2024-03-30T01:04:32.294Z,37.40
2024-03-30T01:05:32.234Z,37.63
2024-03-30T01:06:32.255Z,37.76
2024-03-30T01:07:32.273Z,37.40
2024-03-30T01:08:32.268Z,37.16
2024-03-30T01:09:32.231Z,37.45
2024-03-30T01:10:32.209Z,37.54
2024-03-30T01:11:32.271Z,37.59
2024-03-30T01:12:32.173Z,37.32
2024-03-30T01:13:32.152Z,37.90
2024-03-30T01:14:32.315Z,38.05
2024-03-30T01:15:32.116Z,37.53
2024-03-30T01:16:32.121Z,37.58
2024-03-30T01:17:32.066Z,39.01
2024-03-30T01:18:32.072Z,37.28
2024-03-30T01:19:32.066Z,37.01
2024-03-30T01:20:32.050Z,37.30
2024-03-30T01:21:32.032Z,37.11
2024-03-30T01:22:32.016Z,37.72
2024-03-30T01:23:32.015Z,38.13
2024-03-30T01:24:31.977Z,37.88
2024-03-30T01:25:31.973Z,37.13
2024-03-30T01:26:31.976Z,37.26
2024-03-30T01:27:33.206Z,38.06
2024-03-30T01:28:31.927Z,37.37
2024-03-30T01:29:31.918Z,37.64
2024-03-30T01:30:31.891Z,37.26
2024-03-30T01:31:31.887Z,37.32
2024-03-30T01:32:31.868Z,37.37
2024-03-30T01:33:31.873Z,37.21
2024-03-30T01:34:31.861Z,37.40
2024-03-30T01:35:31.844Z,37.47
2024-03-30T01:36:31.825Z,37.29
2024-03-30T01:37:31.821Z,37.27
2024-03-30T01:38:31.823Z,36.89
2024-03-30T01:39:31.816Z,36.44
2024-03-30T01:40:31.767Z,36.44
2024-03-30T01:41:31.745Z,37.08
2024-03-30T01:42:31.751Z,37.27
2024-03-30T01:43:31.724Z,37.80
2024-03-30T01:44:31.697Z,37.21
2024-03-30T01:45:31.690Z,36.69
2024-03-30T01:46:32.435Z,36.23
2024-03-30T01:47:31.688Z,36.80
2024-03-30T01:48:31.676Z,36.80
2024-03-30T01:49:31.650Z,36.23
2024-03-30T01:50:31.653Z,35.98
2024-03-30T01:51:31.617Z,35.76
2024-03-30T01:52:31.595Z,35.77
2024-03-30T01:53:39.371Z,36.06
2024-03-30T01:54:31.574Z,35.78
2024-03-30T01:55:31.566Z,35.95
2024-03-30T01:56:31.558Z,36.36
2024-03-30T01:57:31.538Z,35.69
2024-03-30T01:58:31.535Z,35.59
2024-03-30T01:59:31.541Z,35.16
2024-03-30T02:00:31.488Z,35.17
2024-03-30T02:01:31.526Z,35.33
2024-03-30T02:02:31.498Z,35.97
2024-03-30T02:03:31.465Z,35.90
2024-03-30T02:04:31.461Z,35.70
2024-03-30T02:05:31.448Z,35.96
2024-03-30T02:06:31.430Z,36.05
2024-03-30T02:07:31.423Z,35.73
2024-03-30T02:08:31.368Z,35.87
2024-03-30T02:09:31.407Z,35.92
2024-03-30T02:10:31.421Z,35.69
2024-03-30T02:11:31.345Z,36.67
2024-03-30T02:12:31.330Z,36.20
2024-03-30T02:13:31.315Z,35.53
2024-03-30T02:14:31.347Z,35.93
2024-03-30T02:15:31.297Z,35.31
2024-03-30T02:16:31.280Z,35.22
2024-03-30T02:17:31.278Z,35.05
2024-03-30T02:18:31.274Z,35.33
2024-03-30T02:19:31.262Z,35.01
2024-03-30T02:20:31.274Z,35.17
2024-03-30T02:21:31.201Z,35.66
2024-03-30T02:22:31.218Z,35.86
2024-03-30T02:23:31.204Z,35.70
2024-03-30T02:24:31.171Z,36.39
2024-03-30T02:25:31.174Z,37.33
2024-03-30T02:26:31.152Z,36.40
2024-03-30T02:27:31.123Z,36.59
2024-03-30T02:28:31.176Z,36.50
2024-03-30T02:29:31.102Z,36.59
2024-03-30T02:30:31.139Z,37.09
2024-03-30T02:31:31.149Z,37.08
2024-03-30T02:32:31.128Z,37.04
2024-03-30T02:33:31.098Z,36.73
2024-03-30T02:34:31.066Z,36.82
2024-03-30T02:35:31.105Z,36.44
2024-03-30T02:36:31.075Z,36.86
2024-03-30T02:37:31.171Z,36.39
2024-03-30T02:38:31.023Z,36.65
2024-03-30T02:39:30.963Z,36.44
2024-03-30T02:40:30.981Z,36.34
2024-03-30T02:41:30.937Z,36.31
2024-03-30T02:42:30.933Z,36.20
2024-03-30T02:43:30.908Z,36.39
2024-03-30T02:44:30.908Z,36.72
2024-03-30T02:45:30.881Z,37.07
2024-03-30T02:46:30.927Z,37.04
2024-03-30T02:47:30.867Z,37.14
2024-03-30T02:48:30.840Z,37.34
2024-03-30T02:49:30.841Z,36.93
2024-03-30T02:50:30.842Z,37.19
2024-03-30T02:51:30.798Z,37.40
2024-03-30T02:52:30.820Z,37.46
2024-03-30T02:53:30.805Z,38.04
2024-03-30T02:54:30.759Z,38.59
2024-03-30T02:55:30.757Z,38.68
2024-03-30T02:56:30.745Z,38.13
2024-03-30T02:57:30.719Z,38.45
2024-03-30T02:58:30.707Z,38.85
2024-03-30T02:59:30.697Z,38.72
2024-03-30T03:00:30.708Z,38.48
2024-03-30T03:01:30.689Z,39.21
2024-03-30T03:02:30.676Z,40.00
2024-03-30T03:03:30.644Z,39.73
2024-03-30T03:04:30.623Z,40.01
2024-03-30T03:05:30.641Z,39.79
2024-03-30T03:06:30.635Z,39.54
2024-03-30T03:07:30.582Z,40.75
2024-03-30T03:08:30.583Z,40.12
2024-03-30T03:09:30.603Z,39.84
2024-03-30T03:10:30.533Z,40.50
2024-03-30T03:11:30.537Z,40.42
2024-03-30T03:12:30.538Z,40.53
2024-03-30T03:13:30.520Z,40.10
2024-03-30T03:14:30.480Z,40.53
2024-03-30T03:15:30.504Z,41.92
2024-03-30T03:16:30.488Z,41.87
2024-03-30T03:17:30.475Z,40.38
2024-03-30T03:18:30.439Z,41.70
2024-03-30T03:19:30.438Z,41.06
2024-03-30T03:20:30.443Z,40.31
2024-03-30T03:21:30.415Z,41.46
2024-03-30T03:22:30.358Z,41.80
2024-03-30T03:23:30.362Z,41.72
2024-03-30T03:24:30.343Z,40.79
2024-03-30T03:25:30.322Z,41.43
2024-03-30T03:26:30.341Z,41.66
2024-03-30T03:27:30.300Z,42.41
2024-03-30T03:28:30.295Z,40.92
2024-03-30T03:29:30.277Z,42.53
2024-03-30T03:30:30.278Z,42.95
2024-03-30T03:31:30.252Z,41.53
2024-03-30T03:32:30.241Z,42.45
2024-03-30T03:33:30.220Z,42.26
2024-03-30T03:34:30.231Z,42.31
2024-03-30T03:35:30.208Z,43.36
2024-03-30T03:36:30.182Z,41.52
2024-03-30T03:37:30.167Z,41.73
2024-03-30T03:38:30.146Z,41.25
2024-03-30T03:39:30.142Z,41.45
2024-03-30T03:40:30.119Z,41.03
2024-03-30T03:41:30.143Z,40.69
2024-03-30T03:42:30.098Z,40.51
2024-03-30T03:43:30.078Z,40.49
2024-03-30T03:44:30.066Z,40.36
2024-03-30T03:45:31.875Z,40.34
2024-03-30T03:46:30.038Z,40.27
2024-03-30T03:47:30.030Z,40.36
2024-03-30T03:48:30.042Z,40.51
2024-03-30T03:49:30.011Z,40.42
2024-03-30T03:50:29.982Z,40.56
2024-03-30T03:51:30.001Z,41.06
2024-03-30T03:52:29.968Z,40.77
2024-03-30T03:53:29.958Z,41.11
2024-03-30T03:54:29.962Z,41.12
2024-03-30T03:55:29.920Z,42.17
2024-03-30T03:56:29.968Z,41.43
2024-03-30T03:57:29.905Z,41.90
2024-03-30T03:58:29.887Z,41.42
2024-03-30T03:59:29.868Z,41.25
2024-03-30T04:00:29.878Z,41.86
2024-03-30T04:01:29.880Z,41.94
2024-03-30T04:02:29.850Z,41.04
2024-03-30T04:03:29.838Z,41.41
2024-03-30T04:04:29.856Z,41.17
2024-03-30T04:05:29.787Z,40.79
2024-03-30T04:06:29.807Z,41.04
2024-03-30T04:07:29.747Z,41.14
2024-03-30T04:08:29.731Z,41.55
2024-03-30T04:09:29.754Z,41.52
2024-03-30T04:10:29.810Z,41.29
2024-03-30T04:11:29.739Z,40.99
2024-03-30T04:12:29.689Z,40.92
2024-03-30T04:13:29.697Z,41.32
2024-03-30T04:14:29.650Z,41.26
2024-03-30T04:15:29.704Z,41.50
2024-03-30T04:16:30.408Z,41.27
2024-03-30T04:17:29.636Z,41.12
2024-03-30T04:18:29.632Z,41.36
2024-03-30T04:19:29.595Z,41.53
2024-03-30T04:20:29.611Z,41.73
2024-03-30T04:21:29.553Z,42.07
2024-03-30T04:22:29.577Z,43.22
2024-03-30T04:23:29.540Z,42.45
2024-03-30T04:24:29.513Z,42.83
2024-03-30T04:25:29.692Z,41.99
2024-03-30T04:26:29.507Z,42.35
2024-03-30T04:27:29.536Z,41.80
2024-03-30T04:28:29.464Z,41.88
2024-03-30T04:29:29.548Z,42.19
2024-03-30T04:30:29.455Z,41.75
2024-03-30T04:31:29.434Z,41.56
2024-03-30T04:32:29.438Z,41.05
2024-03-30T04:33:29.418Z,41.06
2024-03-30T04:34:29.383Z,41.74
2024-03-30T04:35:29.395Z,41.51
2024-03-30T04:36:29.377Z,41.28
2024-03-30T04:37:29.346Z,41.38
2024-03-30T04:38:29.378Z,41.39
2024-03-30T04:39:29.345Z,41.69
2024-03-30T04:40:29.310Z,41.55
2024-03-30T04:41:29.299Z,41.53
2024-03-30T04:42:29.302Z,41.55
2024-03-30T04:43:29.282Z,41.53
2024-03-30T04:44:29.244Z,42.55
2024-03-30T04:45:29.242Z,41.68
2024-03-30T04:46:29.264Z,42.15
2024-03-30T04:47:29.276Z,41.68
2024-03-30T04:48:29.191Z,41.46
2024-03-30T04:49:29.240Z,42.29
2024-03-30T04:50:29.169Z,41.23
2024-03-30T04:51:29.183Z,41.56
2024-03-30T04:52:29.155Z,41.54
2024-03-30T04:53:29.184Z,41.91
2024-03-30T04:54:29.175Z,42.26
2024-03-30T04:55:29.152Z,42.18
2024-03-30T04:56:29.080Z,41.75
2024-03-30T04:57:29.083Z,41.99
2024-03-30T04:58:29.043Z,41.18
2024-03-30T04:59:29.032Z,41.40
2024-03-30T05:00:29.043Z,41.37
2024-03-30T05:01:29.027Z,41.74
2024-03-30T05:02:28.981Z,41.82
2024-03-30T05:03:28.975Z,40.85
2024-03-30T05:04:28.955Z,41.01
2024-03-30T05:05:28.966Z,41.31
2024-03-30T05:06:28.959Z,41.40
2024-03-30T05:07:28.920Z,40.91
2024-03-30T05:08:28.900Z,41.81
2024-03-30T05:09:28.890Z,41.44
2024-03-30T05:10:28.886Z,40.82
2024-03-30T05:11:28.860Z,40.74
2024-03-30T05:12:28.895Z,40.98
2024-03-30T05:13:28.854Z,40.71
2024-03-30T05:14:28.839Z,41.08
2024-03-30T05:15:28.833Z,41.24
2024-03-30T05:16:28.850Z,42.06
2024-03-30T05:17:28.861Z,41.29
2024-03-30T05:18:28.768Z,41.18
2024-03-30T05:19:28.744Z,41.81
2024-03-30T05:20:28.799Z,41.59
2024-03-30T05:21:28.757Z,41.46
2024-03-30T05:22:28.759Z,41.76
2024-03-30T05:23:28.745Z,41.79
2024-03-30T05:24:28.705Z,41.92
2024-03-30T05:25:28.744Z,42.36
2024-03-30T05:26:28.653Z,42.54
2024-03-30T05:27:28.656Z,42.97
2024-03-30T05:28:28.675Z,42.50
2024-03-30T05:29:28.643Z,42.23
2024-03-30T05:30:28.621Z,42.50
2024-03-30T05:31:28.624Z,42.40
2024-03-30T05:32:28.602Z,42.26
2024-03-30T05:33:28.561Z,42.42
2024-03-30T05:34:28.563Z,42.67
2024-03-30T05:35:28.544Z,42.99
2024-03-30T05:36:28.544Z,43.13
2024-03-30T05:37:28.515Z,42.91
2024-03-30T05:38:28.490Z,43.52
2024-03-30T05:39:28.478Z,43.12
2024-03-30T05:40:28.502Z,43.48
2024-03-30T05:41:28.496Z,43.06
2024-03-30T05:42:28.458Z,42.40
2024-03-30T05:43:28.470Z,42.19
2024-03-30T05:44:28.409Z,42.55
2024-03-30T05:45:28.411Z,42.44
2024-03-30T05:46:28.499Z,42.11
2024-03-30T05:47:28.480Z,42.21
2024-03-30T05:48:28.372Z,42.10
2024-03-30T05:49:28.362Z,42.17
2024-03-30T05:50:28.366Z,42.09
2024-03-30T05:51:28.357Z,42.08
2024-03-30T05:52:28.334Z,42.26
2024-03-30T05:53:28.336Z,42.17
2024-03-30T05:54:28.322Z,41.86
2024-03-30T05:55:28.288Z,42.07
2024-03-30T05:56:28.280Z,41.88
2024-03-30T05:57:28.236Z,41.93
2024-03-30T05:58:28.288Z,41.83
2024-03-30T05:59:28.213Z,41.67
2024-03-30T06:00:28.275Z,41.59
2024-03-30T06:01:28.185Z,41.29
2024-03-30T06:02:28.164Z,41.31
2024-03-30T06:03:28.175Z,41.26
2024-03-30T06:04:28.164Z,41.39
2024-03-30T06:05:28.149Z,41.19
2024-03-30T06:06:28.119Z,41.13
2024-03-30T06:07:28.098Z,41.12
2024-03-30T06:08:28.119Z,41.34
2024-03-30T06:09:28.071Z,40.95
2024-03-30T06:10:28.083Z,41.21
2024-03-30T06:11:28.039Z,40.80
2024-03-30T06:12:28.081Z,40.76
2024-03-30T06:13:28.040Z,40.89
2024-03-30T06:14:27.999Z,40.80
2024-03-30T06:15:28.058Z,40.77
2024-03-30T06:16:27.966Z,40.85
2024-03-30T06:17:28.018Z,40.80
2024-03-30T06:18:28.013Z,40.61
2024-03-30T06:19:27.956Z,40.88
2024-03-30T06:20:28.082Z,41.11
2024-03-30T06:21:27.966Z,40.93
2024-03-30T06:22:27.906Z,40.98
2024-03-30T06:23:27.926Z,41.24
2024-03-30T06:24:27.915Z,41.12
2024-03-30T06:25:27.858Z,41.06
2024-03-30T06:26:27.842Z,41.09
2024-03-30T06:27:27.844Z,41.11
2024-03-30T06:28:27.812Z,41.70
2024-03-30T06:29:36.165Z,41.46
2024-03-30T06:30:27.819Z,41.42
2024-03-30T06:31:28.632Z,41.45
2024-03-30T06:32:27.760Z,40.98
2024-03-30T06:33:27.790Z,41.41
2024-03-30T06:34:27.754Z,41.65
2024-03-30T06:35:27.712Z,41.16
2024-03-30T06:36:27.709Z,41.10
2024-03-30T06:37:27.676Z,41.83
2024-03-30T06:38:27.684Z,41.90
2024-03-30T06:39:27.688Z,41.17
2024-03-30T06:40:27.673Z,41.34
2024-03-30T06:41:27.638Z,40.86
2024-03-30T06:42:27.650Z,41.55
2024-03-30T06:43:27.650Z,41.39
2024-03-30T06:44:27.631Z,42.18
2024-03-30T06:45:27.752Z,41.60
2024-03-30T06:46:27.663Z,41.74
2024-03-30T06:47:27.700Z,41.25
2024-03-30T06:48:27.740Z,41.65
2024-03-30T06:49:27.612Z,41.48
2024-03-30T06:50:27.532Z,41.44
2024-03-30T06:51:27.726Z,41.29
2024-03-30T06:52:27.621Z,41.23
2024-03-30T06:53:27.526Z,41.21
2024-03-30T06:54:27.566Z,41.17
2024-03-30T06:55:27.519Z,41.37
2024-03-30T06:56:27.480Z,41.31
2024-03-30T06:57:27.587Z,42.13
2024-03-30T06:58:27.466Z,41.92
2024-03-30T06:59:27.438Z,41.96
2024-03-30T07:00:27.438Z,41.92
2024-03-30T07:01:27.458Z,41.47
2024-03-30T07:02:27.377Z,41.82
2024-03-30T07:03:27.392Z,42.23
2024-03-30T07:04:27.321Z,41.85
2024-03-30T07:05:27.306Z,41.51
2024-03-30T07:06:27.310Z,41.62
2024-03-30T07:07:27.263Z,41.36
2024-03-30T07:08:27.292Z,41.45
2024-03-30T07:09:27.241Z,41.38
2024-03-30T07:10:27.267Z,41.42
2024-03-30T07:11:27.257Z,41.21
2024-03-30T07:12:29.036Z,41.37
2024-03-30T07:13:27.248Z,41.35
2024-03-30T07:14:27.240Z,41.40
2024-03-30T07:15:27.268Z,41.29
2024-03-30T07:16:27.478Z,41.22
2024-03-30T07:17:27.245Z,41.29
2024-03-30T07:18:27.198Z,41.17
2024-03-30T07:19:27.309Z,41.17
2024-03-30T07:20:27.232Z,41.34
2024-03-30T07:21:27.184Z,41.16
2024-03-30T07:22:27.321Z,41.09
2024-03-30T07:23:27.119Z,40.92
2024-03-30T07:24:27.053Z,40.85
2024-03-30T07:25:27.126Z,40.94
2024-03-30T07:26:27.073Z,41.04
2024-03-30T07:27:27.024Z,41.08
2024-03-30T07:28:27.047Z,40.76
2024-03-30T07:29:26.995Z,41.02
2024-03-30T07:30:27.067Z,40.73
2024-03-30T07:31:27.005Z,40.83
2024-03-30T07:32:27.015Z,40.93
2024-03-30T07:33:27.041Z,40.60
2024-03-30T07:34:26.957Z,41.04
2024-03-30T07:35:27.072Z,40.82
2024-03-30T07:36:26.989Z,40.76
2024-03-30T07:37:26.972Z,40.87
2024-03-30T07:38:27.360Z,40.34
2024-03-30T07:39:27.014Z,40.85
2024-03-30T07:40:26.991Z,40.69
2024-03-30T07:41:26.907Z,40.94
2024-03-30T07:42:26.873Z,41.69
2024-03-30T07:43:27.022Z,41.62
2024-03-30T07:44:27.033Z,41.31
2024-03-30T07:45:26.832Z,41.37
2024-03-30T07:46:27.016Z,41.25
2024-03-30T07:47:26.868Z,41.76
2024-03-30T07:48:26.763Z,41.25
2024-03-30T07:49:26.741Z,41.27
2024-03-30T07:50:26.989Z,41.42
2024-03-30T07:51:26.694Z,41.52
2024-03-30T07:52:26.718Z,41.35
2024-03-30T07:53:26.678Z,41.31
2024-03-30T07:54:26.644Z,41.23
2024-03-30T07:55:26.618Z,41.44
2024-03-30T07:56:26.603Z,41.21
2024-03-30T07:57:26.588Z,41.23
2024-03-30T07:58:26.614Z,41.47
2024-03-30T07:59:26.639Z,41.77
2024-03-30T08:00:26.568Z,41.38
2024-03-30T08:01:26.541Z,41.36
2024-03-30T08:02:26.523Z,41.36
2024-03-30T08:03:26.510Z,41.29
2024-03-30T08:04:26.518Z,41.49
2024-03-30T08:05:26.501Z,41.44
2024-03-30T08:06:26.526Z,41.63
2024-03-30T08:07:26.476Z,41.70
2024-03-30T08:08:26.455Z,41.27
2024-03-30T08:09:26.435Z,41.18
2024-03-30T08:10:26.425Z,41.01
2024-03-30T08:11:28.133Z,40.87
2024-03-30T08:12:26.440Z,40.61
2024-03-30T08:13:26.414Z,40.79
2024-03-30T08:14:26.461Z,40.89
2024-03-30T08:15:26.538Z,40.74
2024-03-30T08:16:26.390Z,40.57
2024-03-30T08:17:26.371Z,41.24
2024-03-30T08:18:26.389Z,41.10
2024-03-30T08:19:26.301Z,40.81
2024-03-30T08:20:26.279Z,40.66
2024-03-30T08:21:26.272Z,40.49
2024-03-30T08:22:26.276Z,40.50
2024-03-30T08:23:26.254Z,40.65
2024-03-30T08:24:26.258Z,41.27
2024-03-30T08:25:26.275Z,41.35
2024-03-30T08:26:26.255Z,41.33
2024-03-30T08:27:27.901Z,40.60
2024-03-30T08:28:26.173Z,41.16
2024-03-30T08:29:26.166Z,42.60
2024-03-30T08:30:26.167Z,41.62
2024-03-30T08:31:26.171Z,41.16
2024-03-30T08:32:26.144Z,40.89
2024-03-30T08:33:26.094Z,41.20
2024-03-30T08:34:26.146Z,41.96
2024-03-30T08:35:26.091Z,40.50
2024-03-30T08:36:26.063Z,40.27
2024-03-30T08:37:26.069Z,40.34
2024-03-30T08:38:26.038Z,40.38
2024-03-30T08:39:26.043Z,38.21
2024-03-30T08:40:26.036Z,36.68
2024-03-30T08:41:26.012Z,36.07
2024-03-30T08:42:26.790Z,35.07
2024-03-30T08:43:25.992Z,35.21
2024-03-30T08:44:25.984Z,34.39
2024-03-30T08:45:25.950Z,33.86
2024-03-30T08:46:25.989Z,34.38
2024-03-30T08:47:25.915Z,33.43
2024-03-30T08:48:25.908Z,33.38
2024-03-30T08:49:25.877Z,33.33
2024-03-30T08:50:25.871Z,33.49
2024-03-30T08:51:25.897Z,32.89
2024-03-30T08:52:25.858Z,32.69
2024-03-30T08:53:25.846Z,32.12
2024-03-30T08:54:25.831Z,32.26
2024-03-30T08:55:25.809Z,32.76
2024-03-30T08:56:25.798Z,32.97
2024-03-30T08:57:25.803Z,32.58
2024-03-30T08:58:25.778Z,32.05
2024-03-30T08:59:25.814Z,31.61
2024-03-30T09:00:25.757Z,32.04
2024-03-30T09:01:25.732Z,31.93
2024-03-30T09:02:25.728Z,31.93
2024-03-30T09:03:25.789Z,32.19
2024-03-30T09:04:25.696Z,31.74
2024-03-30T09:05:25.688Z,31.55
2024-03-30T09:06:25.694Z,32.62
2024-03-30T09:07:25.725Z,32.97
2024-03-30T09:08:25.656Z,33.54
2024-03-30T09:09:25.654Z,33.46
2024-03-30T09:10:25.675Z,33.76
2024-03-30T09:11:25.605Z,34.22
2024-03-30T09:12:25.600Z,34.38
2024-03-30T09:13:25.596Z,34.28
2024-03-30T09:14:25.579Z,34.34
2024-03-30T09:15:25.540Z,34.38
2024-03-30T09:16:25.577Z,34.79
2024-03-30T09:17:25.531Z,34.37
2024-03-30T09:18:25.537Z,33.90
2024-03-30T09:19:25.495Z,33.90
2024-03-30T09:20:25.482Z,34.30
2024-03-30T09:21:25.517Z,34.25
2024-03-30T09:22:25.479Z,34.48
2024-03-30T09:23:25.457Z,33.98
2024-03-30T09:24:25.435Z,34.70
2024-03-30T09:25:25.426Z,35.01
2024-03-30T09:26:25.396Z,35.99
2024-03-30T09:27:25.402Z,34.79
2024-03-30T09:28:25.375Z,35.06
2024-03-30T09:29:25.366Z,34.08
2024-03-30T09:30:25.367Z,33.90
2024-03-30T09:31:25.332Z,34.21
2024-03-30T09:32:25.370Z,34.13
2024-03-30T09:33:25.332Z,34.42
2024-03-30T09:34:38.131Z,34.27
2024-03-30T09:35:25.361Z,35.91
2024-03-30T09:36:25.300Z,35.80
2024-03-30T09:37:25.256Z,35.23
2024-03-30T09:38:25.316Z,34.94
2024-03-30T09:39:25.231Z,35.18
2024-03-30T09:40:25.215Z,35.14
2024-03-30T09:41:25.258Z,35.16
2024-03-30T09:42:25.207Z,35.43
2024-03-30T09:43:25.197Z,35.22
2024-03-30T09:44:25.183Z,35.15
2024-03-30T09:45:25.196Z,35.17
2024-03-30T09:46:25.150Z,35.43
2024-03-30T09:47:25.170Z,35.21
2024-03-30T09:48:25.114Z,34.35
2024-03-30T09:49:25.148Z,34.86
2024-03-30T09:50:25.106Z,34.70
2024-03-30T09:51:25.103Z,35.60
2024-03-30T09:52:25.096Z,34.35
2024-03-30T09:53:25.081Z,34.38
2024-03-30T09:54:25.073Z,34.33
2024-03-30T09:55:25.048Z,33.46
2024-03-30T09:56:25.014Z,33.53
2024-03-30T09:57:24.999Z,33.61
2024-03-30T09:58:24.989Z,33.70
2024-03-30T09:59:24.997Z,34.09
2024-03-30T10:00:24.959Z,32.65
2024-03-30T10:01:24.964Z,31.32
2024-03-30T10:02:24.947Z,30.76
2024-03-30T10:03:24.935Z,31.05
2024-03-30T10:04:24.910Z,30.79
2024-03-30T10:05:33.269Z,31.19
2024-03-30T10:06:24.908Z,30.72
2024-03-30T10:07:24.871Z,29.76
2024-03-30T10:08:24.898Z,29.74
2024-03-30T10:09:24.924Z,29.15
2024-03-30T10:10:24.911Z,28.91
2024-03-30T10:11:24.826Z,28.72
2024-03-30T10:12:24.809Z,28.76
2024-03-30T10:13:24.821Z,28.54
2024-03-30T10:14:24.819Z,28.89
2024-03-30T10:15:24.768Z,28.92
2024-03-30T10:16:24.802Z,29.32
2024-03-30T10:17:24.789Z,28.83
2024-03-30T10:18:24.757Z,29.76
2024-03-30T10:19:24.741Z,29.28
2024-03-30T10:20:24.721Z,29.09
2024-03-30T10:21:24.700Z,29.21
2024-03-30T10:22:24.670Z,30.49
2024-03-30T10:23:24.678Z,29.29
2024-03-30T10:24:24.655Z,29.26
2024-03-30T10:25:24.679Z,29.34
2024-03-30T10:26:24.641Z,29.38
2024-03-30T10:27:24.610Z,29.00
2024-03-30T10:28:24.635Z,29.18
2024-03-30T10:29:24.627Z,29.17
2024-03-30T10:30:24.572Z,29.34
2024-03-30T10:31:24.593Z,29.44
2024-03-30T10:32:24.677Z,29.46
2024-03-30T10:33:24.562Z,28.41
2024-03-30T10:34:24.565Z,27.36
2024-03-30T10:35:24.515Z,26.87
2024-03-30T10:36:24.515Z,27.32
2024-03-30T10:37:24.501Z,27.14
2024-03-30T10:38:24.472Z,26.98
2024-03-30T10:39:24.486Z,26.17
2024-03-30T10:40:24.451Z,26.36
2024-03-30T10:41:24.441Z,26.20
2024-03-30T10:42:24.407Z,26.88
2024-03-30T10:43:25.578Z,26.86
2024-03-30T10:44:24.389Z,26.73
2024-03-30T10:45:24.364Z,27.32
2024-03-30T10:46:24.363Z,27.04
2024-03-30T10:47:24.341Z,27.04
2024-03-30T10:48:24.324Z,26.72
2024-03-30T10:49:24.389Z,26.94
2024-03-30T10:50:27.108Z,26.45
2024-03-30T10:51:24.357Z,27.58
2024-03-30T10:52:24.283Z,28.64
2024-03-30T10:53:24.278Z,27.56
2024-03-30T10:54:24.253Z,27.12
2024-03-30T10:55:25.046Z,27.23
2024-03-30T10:56:24.250Z,26.97
2024-03-30T10:57:24.232Z,27.12
2024-03-30T10:58:24.208Z,27.59
2024-03-30T10:59:24.211Z,27.10
2024-03-30T11:00:24.181Z,26.99
2024-03-30T11:01:24.177Z,26.85
2024-03-30T11:02:24.154Z,26.89
2024-03-30T11:03:24.159Z,27.02
2024-03-30T11:04:24.141Z,25.93
2024-03-30T11:05:24.113Z,26.49
2024-03-30T11:06:24.098Z,26.61
2024-03-30T11:07:24.107Z,26.32
2024-03-30T11:08:24.118Z,26.71
2024-03-30T11:09:24.078Z,26.55
2024-03-30T11:10:24.065Z,26.87
2024-03-30T11:11:24.050Z,26.74
2024-03-30T11:12:24.049Z,26.88
2024-03-30T11:13:24.009Z,27.38
2024-03-30T11:14:24.002Z,27.06
2024-03-30T11:15:23.999Z,26.07
2024-03-30T11:16:23.994Z,25.79
2024-03-30T11:17:24.035Z,26.03
2024-03-30T11:18:23.940Z,25.54
2024-03-30T11:19:23.939Z,25.14
2024-03-30T11:20:23.914Z,25.15
2024-03-30T11:21:23.923Z,24.94
2024-03-30T11:22:23.898Z,25.23
2024-03-30T11:23:23.885Z,25.34
2024-03-30T11:24:23.873Z,25.58
2024-03-30T11:25:23.893Z,25.65
2024-03-30T11:26:23.869Z,25.65
2024-03-30T11:27:23.828Z,25.57
2024-03-30T11:28:23.847Z,25.56
2024-03-30T11:29:23.804Z,25.64
2024-03-30T11:30:23.788Z,26.26
2024-03-30T11:31:23.818Z,25.56
2024-03-30T11:32:23.764Z,25.19
2024-03-30T11:33:23.777Z,24.68
2024-03-30T11:34:23.769Z,24.88
2024-03-30T11:35:23.740Z,25.13
2024-03-30T11:36:23.761Z,25.14
2024-03-30T11:37:23.712Z,24.99
2024-03-30T11:38:36.503Z,25.18
2024-03-30T11:39:23.685Z,25.42
2024-03-30T11:40:24.554Z,25.55
2024-03-30T11:41:23.691Z,25.47
2024-03-30T11:42:23.663Z,25.61
2024-03-30T11:43:23.626Z,25.57
2024-03-30T11:44:23.609Z,25.38
2024-03-30T11:45:23.622Z,25.06
2024-03-30T11:46:23.585Z,25.28
2024-03-30T11:47:23.586Z,25.78
2024-03-30T11:48:23.773Z,25.59
2024-03-30T11:49:23.555Z,25.46
2024-03-30T11:50:23.526Z,25.83
2024-03-30T11:51:23.556Z,25.81
2024-03-30T11:52:23.532Z,25.30
2024-03-30T11:53:23.524Z,25.17
2024-03-30T11:54:23.533Z,26.73
2024-03-30T11:55:23.481Z,26.25
2024-03-30T11:56:23.474Z,26.02
2024-03-30T11:57:24.726Z,25.67
2024-03-30T11:58:23.515Z,25.22
2024-03-30T11:59:23.417Z,25.67
2024-03-30T12:00:23.475Z,25.41
2024-03-30T12:01:23.426Z,26.02
2024-03-30T12:02:23.427Z,26.78
2024-03-30T12:03:23.574Z,25.35
2024-03-30T12:04:23.440Z,25.31
2024-03-30T12:05:23.401Z,25.43
2024-03-30T12:06:23.403Z,26.09
2024-03-30T12:07:23.400Z,25.33
2024-03-30T12:08:23.325Z,24.64
2024-03-30T12:09:23.356Z,24.70
2024-03-30T12:10:23.328Z,24.52
2024-03-30T12:11:23.299Z,24.82
2024-03-30T12:12:23.322Z,24.87
2024-03-30T12:13:23.255Z,25.02
2024-03-30T12:14:23.255Z,24.82
2024-03-30T12:15:23.268Z,24.86
2024-03-30T12:16:23.202Z,24.75
2024-03-30T12:17:23.249Z,24.80
2024-03-30T12:18:23.185Z,25.09
2024-03-30T12:19:23.210Z,24.85
2024-03-30T12:20:23.161Z,24.35
2024-03-30T12:21:23.165Z,25.28
2024-03-30T12:22:23.129Z,24.60
2024-03-30T12:23:23.176Z,24.35
2024-03-30T12:24:23.110Z,24.07
2024-03-30T12:25:23.101Z,23.91
2024-03-30T12:26:23.098Z,24.13
2024-03-30T12:27:23.087Z,24.26
2024-03-30T12:28:23.118Z,23.81
2024-03-30T12:29:39.267Z,24.09
2024-03-30T12:30:23.023Z,24.21
2024-03-30T12:31:23.015Z,24.30
2024-03-30T12:32:22.998Z,24.60
2024-03-30T12:33:22.983Z,24.38
2024-03-30T12:34:22.965Z,24.02
2024-03-30T12:35:22.991Z,23.33
2024-03-30T12:36:22.958Z,23.71
2024-03-30T12:37:22.955Z,23.55
2024-03-30T12:38:22.933Z,23.56
2024-03-30T12:39:22.901Z,23.92
2024-03-30T12:40:22.916Z,23.84
2024-03-30T12:41:22.894Z,23.39
2024-03-30T12:42:22.875Z,23.53
2024-03-30T12:43:22.867Z,23.31
2024-03-30T12:44:23.799Z,22.80
2024-03-30T12:45:22.842Z,23.22
2024-03-30T12:46:22.833Z,22.74
2024-03-30T12:47:22.861Z,22.85
2024-03-30T12:48:22.782Z,23.43
2024-03-30T12:49:22.815Z,23.78
2024-03-30T12:50:22.783Z,23.76
2024-03-30T12:51:22.761Z,23.68
2024-03-30T12:52:22.756Z,23.93